sensor_id;sensor_type;location;lat;lon;timestamp;P1;durP1;ratioP1;P2;durP2;ratioP2
55186;SDS011;55457;52.002;5.464;2024-01-10T00:02:13;4.07;;;1.42;;
55186;SDS011;55457;52.002;5.464;2024-01-10T00:04:38;1.65;;;0.90;;
55186;SDS011;55457;52.002;5.464;2024-01-10T00:07:04;2.08;;;0.80;;
55186;SDS011;55457;52.002;5.464;2024-01-10T00:09:31;3.53;;;0.70;;
55186;SDS011;55457;52.002;5.464;2024-01-10T00:11:56;2.50;;;1.00;;
55186;SDS011;55457;52.002;5.464;2024-01-10T00:14:21;4.13;;;1.10;;
55186;SDS011;55457;52.002;5.464;2024-01-10T00:16:47;1.63;;;1.00;;
55186;SDS011;55457;52.002;5.464;2024-01-10T00:19:13;3.65;;;1.20;;
55186;SDS011;55457;52.002;5.464;2024-01-10T00:21:38;1.25;;;0.80;;
55186;SDS011;55457;52.002;5.464;2024-01-10T00:24:04;2.03;;;0.82;;
55186;SDS011;55457;52.002;5.464;2024-01-10T00:26:29;2.10;;;1.17;;
55186;SDS011;55457;52.002;5.464;2024-01-10T00:28:54;2.08;;;0.65;;
55186;SDS011;55457;52.002;5.464;2024-01-10T00:31:20;1.50;;;0.80;;
55186;SDS011;55457;52.002;5.464;2024-01-10T00:33:45;3.90;;;0.93;;
55186;SDS011;55457;52.002;5.464;2024-01-10T00:36:10;2.90;;;1.25;;
55186;SDS011;55457;52.002;5.464;2024-01-10T00:38:36;1.17;;;0.77;;
55186;SDS011;55457;52.002;5.464;2024-01-10T00:41:02;2.88;;;0.85;;
55186;SDS011;55457;52.002;5.464;2024-01-10T00:43:27;2.63;;;1.10;;
55186;SDS011;55457;52.002;5.464;2024-01-10T00:45:53;3.55;;;1.02;;
55186;SDS011;55457;52.002;5.464;2024-01-10T00:48:18;1.67;;;1.00;;
55186;SDS011;55457;52.002;5.464;2024-01-10T00:50:43;1.80;;;0.68;;
55186;SDS011;55457;52.002;5.464;2024-01-10T00:53:09;2.47;;;0.68;;
55186;SDS011;55457;52.002;5.464;2024-01-10T00:55:35;1.48;;;0.80;;
55186;SDS011;55457;52.002;5.464;2024-01-10T00:58:00;2.47;;;1.45;;
55186;SDS011;55457;52.002;5.464;2024-01-10T01:00:25;2.53;;;0.90;;
55186;SDS011;55457;52.002;5.464;2024-01-10T01:02:51;1.50;;;0.90;;
55186;SDS011;55457;52.002;5.464;2024-01-10T01:05:16;1.63;;;0.80;;
55186;SDS011;55457;52.002;5.464;2024-01-10T01:07:42;1.77;;;1.02;;
55186;SDS011;55457;52.002;5.464;2024-01-10T01:10:08;2.42;;;1.20;;
55186;SDS011;55457;52.002;5.464;2024-01-10T01:12:36;1.23;;;0.80;;
55186;SDS011;55457;52.002;5.464;2024-01-10T01:15:02;1.15;;;0.70;;
55186;SDS011;55457;52.002;5.464;2024-01-10T01:17:28;1.65;;;0.88;;
55186;SDS011;55457;52.002;5.464;2024-01-10T01:19:54;2.28;;;0.80;;
55186;SDS011;55457;52.002;5.464;2024-01-10T01:22:19;1.48;;;1.05;;
55186;SDS011;55457;52.002;5.464;2024-01-10T01:24:44;2.88;;;0.80;;
55186;SDS011;55457;52.002;5.464;2024-01-10T01:27:10;1.70;;;1.02;;
55186;SDS011;55457;52.002;5.464;2024-01-10T01:29:35;2.95;;;1.00;;
55186;SDS011;55457;52.002;5.464;2024-01-10T01:32:00;2.17;;;0.95;;
55186;SDS011;55457;52.002;5.464;2024-01-10T01:34:26;1.65;;;0.88;;
55186;SDS011;55457;52.002;5.464;2024-01-10T01:36:51;2.20;;;0.88;;
55186;SDS011;55457;52.002;5.464;2024-01-10T01:39:17;1.42;;;0.80;;
55186;SDS011;55457;52.002;5.464;2024-01-10T01:41:43;1.10;;;0.85;;
55186;SDS011;55457;52.002;5.464;2024-01-10T01:44:08;1.92;;;0.80;;
55186;SDS011;55457;52.002;5.464;2024-01-10T01:46:33;5.40;;;1.13;;
55186;SDS011;55457;52.002;5.464;2024-01-10T01:48:59;3.38;;;1.38;;
55186;SDS011;55457;52.002;5.464;2024-01-10T01:51:25;3.35;;;0.82;;
55186;SDS011;55457;52.002;5.464;2024-01-10T01:53:52;2.80;;;0.93;;
55186;SDS011;55457;52.002;5.464;2024-01-10T01:56:18;2.55;;;1.10;;
55186;SDS011;55457;52.002;5.464;2024-01-10T01:58:44;2.22;;;1.27;;
55186;SDS011;55457;52.002;5.464;2024-01-10T02:01:11;2.00;;;0.70;;
55186;SDS011;55457;52.002;5.464;2024-01-10T02:03:37;4.85;;;1.13;;
55186;SDS011;55457;52.002;5.464;2024-01-10T02:06:03;2.72;;;1.00;;
55186;SDS011;55457;52.002;5.464;2024-01-10T02:08:37;1.48;;;0.90;;
55186;SDS011;55457;52.002;5.464;2024-01-10T02:11:03;2.20;;;0.65;;
55186;SDS011;55457;52.002;5.464;2024-01-10T02:13:29;2.95;;;1.13;;
55186;SDS011;55457;52.002;5.464;2024-01-10T02:15:55;1.48;;;0.93;;
55186;SDS011;55457;52.002;5.464;2024-01-10T02:18:21;1.33;;;0.88;;
55186;SDS011;55457;52.002;5.464;2024-01-10T02:20:47;1.67;;;0.93;;
55186;SDS011;55457;52.002;5.464;2024-01-10T02:23:12;2.60;;;1.23;;
55186;SDS011;55457;52.002;5.464;2024-01-10T02:25:38;1.73;;;0.82;;
55186;SDS011;55457;52.002;5.464;2024-01-10T02:28:05;2.22;;;0.65;;
55186;SDS011;55457;52.002;5.464;2024-01-10T02:30:30;4.13;;;1.13;;
55186;SDS011;55457;52.002;5.464;2024-01-10T02:32:55;3.10;;;1.35;;
55186;SDS011;55457;52.002;5.464;2024-01-10T02:35:21;2.08;;;1.00;;
55186;SDS011;55457;52.002;5.464;2024-01-10T02:37:46;1.88;;;0.80;;
55186;SDS011;55457;52.002;5.464;2024-01-10T02:40:11;2.10;;;0.90;;
55186;SDS011;55457;52.002;5.464;2024-01-10T02:42:37;1.45;;;0.75;;
55186;SDS011;55457;52.002;5.464;2024-01-10T02:45:03;3.13;;;1.00;;
55186;SDS011;55457;52.002;5.464;2024-01-10T02:47:29;2.22;;;1.08;;
55186;SDS011;55457;52.002;5.464;2024-01-10T02:49:54;4.80;;;1.60;;
55186;SDS011;55457;52.002;5.464;2024-01-10T02:52:20;1.30;;;0.82;;
55186;SDS011;55457;52.002;5.464;2024-01-10T02:54:45;2.25;;;1.63;;
55186;SDS011;55457;52.002;5.464;2024-01-10T02:57:11;2.90;;;0.98;;
55186;SDS011;55457;52.002;5.464;2024-01-10T02:59:37;3.08;;;1.20;;
55186;SDS011;55457;52.002;5.464;2024-01-10T03:02:02;7.85;;;1.20;;
55186;SDS011;55457;52.002;5.464;2024-01-10T03:04:27;3.10;;;0.90;;
55186;SDS011;55457;52.002;5.464;2024-01-10T03:06:53;2.25;;;1.42;;
55186;SDS011;55457;52.002;5.464;2024-01-10T03:09:18;3.45;;;1.10;;
55186;SDS011;55457;52.002;5.464;2024-01-10T03:11:43;3.35;;;0.85;;
55186;SDS011;55457;52.002;5.464;2024-01-10T03:14:09;2.78;;;1.30;;
55186;SDS011;55457;52.002;5.464;2024-01-10T03:16:35;1.92;;;1.02;;
55186;SDS011;55457;52.002;5.464;2024-01-10T03:19:02;4.35;;;1.05;;
55186;SDS011;55457;52.002;5.464;2024-01-10T03:21:27;1.67;;;1.00;;
55186;SDS011;55457;52.002;5.464;2024-01-10T03:23:56;3.20;;;0.85;;
55186;SDS011;55457;52.002;5.464;2024-01-10T03:26:22;3.53;;;1.17;;
55186;SDS011;55457;52.002;5.464;2024-01-10T03:28:48;3.70;;;1.20;;
55186;SDS011;55457;52.002;5.464;2024-01-10T03:31:14;1.60;;;0.98;;
55186;SDS011;55457;52.002;5.464;2024-01-10T03:33:40;1.15;;;0.60;;
55186;SDS011;55457;52.002;5.464;2024-01-10T03:36:06;1.38;;;0.88;;
55186;SDS011;55457;52.002;5.464;2024-01-10T03:38:33;5.70;;;1.13;;
55186;SDS011;55457;52.002;5.464;2024-01-10T03:40:59;1.85;;;1.00;;
55186;SDS011;55457;52.002;5.464;2024-01-10T03:43:24;2.88;;;1.02;;
55186;SDS011;55457;52.002;5.464;2024-01-10T03:45:49;1.67;;;0.90;;
55186;SDS011;55457;52.002;5.464;2024-01-10T03:48:15;2.22;;;0.85;;
55186;SDS011;55457;52.002;5.464;2024-01-10T03:50:40;1.85;;;0.93;;
55186;SDS011;55457;52.002;5.464;2024-01-10T03:53:05;3.13;;;1.17;;
55186;SDS011;55457;52.002;5.464;2024-01-10T03:55:31;1.40;;;0.75;;
55186;SDS011;55457;52.002;5.464;2024-01-10T03:57:56;4.60;;;0.95;;
55186;SDS011;55457;52.002;5.464;2024-01-10T04:00:22;3.83;;;1.10;;
55186;SDS011;55457;52.002;5.464;2024-01-10T04:02:47;4.90;;;1.02;;
55186;SDS011;55457;52.002;5.464;2024-01-10T04:05:12;2.50;;;1.30;;
55186;SDS011;55457;52.002;5.464;2024-01-10T04:07:41;2.80;;;0.82;;
55186;SDS011;55457;52.002;5.464;2024-01-10T04:10:08;3.47;;;1.38;;
55186;SDS011;55457;52.002;5.464;2024-01-10T04:12:35;3.55;;;0.90;;
55186;SDS011;55457;52.002;5.464;2024-01-10T04:15:02;2.75;;;0.77;;
55186;SDS011;55457;52.002;5.464;2024-01-10T04:17:27;2.63;;;0.70;;
55186;SDS011;55457;52.002;5.464;2024-01-10T04:19:53;1.13;;;1.00;;
55186;SDS011;55457;52.002;5.464;2024-01-10T04:22:18;1.77;;;0.77;;
55186;SDS011;55457;52.002;5.464;2024-01-10T04:24:43;1.35;;;0.73;;
55186;SDS011;55457;52.002;5.464;2024-01-10T04:27:09;3.05;;;1.17;;
55186;SDS011;55457;52.002;5.464;2024-01-10T04:29:34;2.05;;;1.08;;
55186;SDS011;55457;52.002;5.464;2024-01-10T04:31:59;2.55;;;0.82;;
55186;SDS011;55457;52.002;5.464;2024-01-10T04:34:25;2.83;;;0.80;;
55186;SDS011;55457;52.002;5.464;2024-01-10T04:36:50;1.45;;;0.60;;
55186;SDS011;55457;52.002;5.464;2024-01-10T04:39:16;2.25;;;1.10;;
55186;SDS011;55457;52.002;5.464;2024-01-10T04:41:41;1.52;;;0.80;;
55186;SDS011;55457;52.002;5.464;2024-01-10T04:44:06;1.05;;;0.80;;
55186;SDS011;55457;52.002;5.464;2024-01-10T04:46:32;4.53;;;0.85;;
55186;SDS011;55457;52.002;5.464;2024-01-10T04:48:58;1.75;;;0.90;;
55186;SDS011;55457;52.002;5.464;2024-01-10T04:51:24;4.70;;;1.20;;
55186;SDS011;55457;52.002;5.464;2024-01-10T04:53:49;2.95;;;1.23;;
55186;SDS011;55457;52.002;5.464;2024-01-10T04:56:14;1.73;;;0.70;;
55186;SDS011;55457;52.002;5.464;2024-01-10T04:58:39;1.90;;;1.17;;
55186;SDS011;55457;52.002;5.464;2024-01-10T05:01:05;3.80;;;1.40;;
55186;SDS011;55457;52.002;5.464;2024-01-10T05:03:31;2.42;;;1.10;;
55186;SDS011;55457;52.002;5.464;2024-01-10T05:05:56;1.70;;;1.00;;
55186;SDS011;55457;52.002;5.464;2024-01-10T05:08:21;2.65;;;0.98;;
55186;SDS011;55457;52.002;5.464;2024-01-10T05:10:47;1.48;;;0.80;;
55186;SDS011;55457;52.002;5.464;2024-01-10T05:13:12;1.10;;;0.75;;
55186;SDS011;55457;52.002;5.464;2024-01-10T05:15:38;3.60;;;1.00;;
55186;SDS011;55457;52.002;5.464;2024-01-10T05:18:03;3.53;;;1.00;;
55186;SDS011;55457;52.002;5.464;2024-01-10T05:20:29;1.60;;;0.82;;
55186;SDS011;55457;52.002;5.464;2024-01-10T05:22:54;3.92;;;1.17;;
55186;SDS011;55457;52.002;5.464;2024-01-10T05:25:23;1.60;;;0.85;;
55186;SDS011;55457;52.002;5.464;2024-01-10T05:27:49;2.13;;;1.08;;
55186;SDS011;55457;52.002;5.464;2024-01-10T05:30:14;1.75;;;0.75;;
55186;SDS011;55457;52.002;5.464;2024-01-10T05:32:39;1.33;;;0.88;;
55186;SDS011;55457;52.002;5.464;2024-01-10T05:35:05;1.45;;;0.70;;
55186;SDS011;55457;52.002;5.464;2024-01-10T05:37:31;1.40;;;0.80;;
55186;SDS011;55457;52.002;5.464;2024-01-10T05:39:56;1.85;;;1.15;;
55186;SDS011;55457;52.002;5.464;2024-01-10T05:42:21;1.58;;;0.90;;
55186;SDS011;55457;52.002;5.464;2024-01-10T05:44:47;2.40;;;0.95;;
55186;SDS011;55457;52.002;5.464;2024-01-10T05:47:12;1.48;;;0.73;;
55186;SDS011;55457;52.002;5.464;2024-01-10T05:49:38;1.48;;;0.80;;
55186;SDS011;55457;52.002;5.464;2024-01-10T05:52:03;5.03;;;1.13;;
55186;SDS011;55457;52.002;5.464;2024-01-10T05:54:29;3.10;;;1.08;;
55186;SDS011;55457;52.002;5.464;2024-01-10T05:56:54;2.97;;;0.90;;
55186;SDS011;55457;52.002;5.464;2024-01-10T05:59:19;1.70;;;0.70;;
55186;SDS011;55457;52.002;5.464;2024-01-10T06:01:45;1.40;;;0.90;;
55186;SDS011;55457;52.002;5.464;2024-01-10T06:04:10;2.55;;;1.10;;
55186;SDS011;55457;52.002;5.464;2024-01-10T06:06:35;1.60;;;0.77;;
55186;SDS011;55457;52.002;5.464;2024-01-10T06:09:01;1.23;;;0.90;;
55186;SDS011;55457;52.002;5.464;2024-01-10T06:11:26;2.08;;;1.13;;
55186;SDS011;55457;52.002;5.464;2024-01-10T06:13:52;1.35;;;0.88;;
55186;SDS011;55457;52.002;5.464;2024-01-10T06:16:18;1.30;;;0.80;;
55186;SDS011;55457;52.002;5.464;2024-01-10T06:18:43;2.67;;;0.85;;
55186;SDS011;55457;52.002;5.464;2024-01-10T06:21:08;2.15;;;0.90;;
55186;SDS011;55457;52.002;5.464;2024-01-10T06:23:34;3.33;;;1.10;;
55186;SDS011;55457;52.002;5.464;2024-01-10T06:25:59;1.67;;;1.00;;
55186;SDS011;55457;52.002;5.464;2024-01-10T06:28:24;0.77;;;0.60;;
55186;SDS011;55457;52.002;5.464;2024-01-10T06:30:49;3.70;;;1.02;;
55186;SDS011;55457;52.002;5.464;2024-01-10T06:33:15;4.07;;;1.13;;
55186;SDS011;55457;52.002;5.464;2024-01-10T06:35:41;2.20;;;1.20;;
55186;SDS011;55457;52.002;5.464;2024-01-10T06:38:08;3.10;;;1.02;;
55186;SDS011;55457;52.002;5.464;2024-01-10T06:40:34;1.42;;;1.02;;
55186;SDS011;55457;52.002;5.464;2024-01-10T06:43:01;4.97;;;1.55;;
55186;SDS011;55457;52.002;5.464;2024-01-10T06:45:27;1.90;;;1.15;;
55186;SDS011;55457;52.002;5.464;2024-01-10T06:47:52;2.50;;;0.95;;
55186;SDS011;55457;52.002;5.464;2024-01-10T06:50:18;4.63;;;1.90;;
55186;SDS011;55457;52.002;5.464;2024-01-10T06:52:45;4.53;;;1.33;;
55186;SDS011;55457;52.002;5.464;2024-01-10T06:55:10;3.05;;;0.90;;
55186;SDS011;55457;52.002;5.464;2024-01-10T06:57:36;2.25;;;1.13;;
55186;SDS011;55457;52.002;5.464;2024-01-10T07:00:01;2.05;;;1.23;;
55186;SDS011;55457;52.002;5.464;2024-01-10T07:02:31;2.63;;;1.10;;
55186;SDS011;55457;52.002;5.464;2024-01-10T07:04:57;1.77;;;0.80;;
55186;SDS011;55457;52.002;5.464;2024-01-10T07:07:22;3.35;;;1.20;;
55186;SDS011;55457;52.002;5.464;2024-01-10T07:09:48;2.35;;;1.10;;
55186;SDS011;55457;52.002;5.464;2024-01-10T07:12:13;6.88;;;1.10;;
55186;SDS011;55457;52.002;5.464;2024-01-10T07:14:39;1.77;;;0.98;;
55186;SDS011;55457;52.002;5.464;2024-01-10T07:17:04;2.95;;;1.40;;
55186;SDS011;55457;52.002;5.464;2024-01-10T07:19:29;2.25;;;1.05;;
55186;SDS011;55457;52.002;5.464;2024-01-10T07:21:56;11.98;;;1.50;;
55186;SDS011;55457;52.002;5.464;2024-01-10T07:24:21;5.53;;;1.50;;
55186;SDS011;55457;52.002;5.464;2024-01-10T07:26:46;6.28;;;1.35;;
55186;SDS011;55457;52.002;5.464;2024-01-10T07:29:12;14.95;;;1.90;;
55186;SDS011;55457;52.002;5.464;2024-01-10T07:31:38;9.07;;;2.25;;
55186;SDS011;55457;52.002;5.464;2024-01-10T07:34:04;8.98;;;1.90;;
55186;SDS011;55457;52.002;5.464;2024-01-10T07:36:40;8.73;;;1.67;;
55186;SDS011;55457;52.002;5.464;2024-01-10T07:39:07;7.10;;;1.95;;
55186;SDS011;55457;52.002;5.464;2024-01-10T07:41:32;8.77;;;2.00;;
55186;SDS011;55457;52.002;5.464;2024-01-10T07:43:58;11.32;;;2.50;;
55186;SDS011;55457;52.002;5.464;2024-01-10T07:46:23;9.70;;;1.88;;
55186;SDS011;55457;52.002;5.464;2024-01-10T07:48:48;6.15;;;2.63;;
55186;SDS011;55457;52.002;5.464;2024-01-10T07:51:14;6.78;;;2.28;;
55186;SDS011;55457;52.002;5.464;2024-01-10T07:53:39;11.35;;;2.42;;
55186;SDS011;55457;52.002;5.464;2024-01-10T07:56:05;12.57;;;2.60;;
55186;SDS011;55457;52.002;5.464;2024-01-10T07:58:30;12.43;;;2.10;;
55186;SDS011;55457;52.002;5.464;2024-01-10T08:00:56;12.75;;;2.25;;
55186;SDS011;55457;52.002;5.464;2024-01-10T08:03:21;8.00;;;2.15;;
55186;SDS011;55457;52.002;5.464;2024-01-10T08:05:46;9.63;;;4.03;;
55186;SDS011;55457;52.002;5.464;2024-01-10T08:08:11;10.45;;;1.92;;
55186;SDS011;55457;52.002;5.464;2024-01-10T08:10:38;6.65;;;2.38;;
55186;SDS011;55457;52.002;5.464;2024-01-10T08:13:04;7.03;;;1.60;;
55186;SDS011;55457;52.002;5.464;2024-01-10T08:15:30;6.88;;;1.92;;
55186;SDS011;55457;52.002;5.464;2024-01-10T08:17:56;10.82;;;1.80;;
55186;SDS011;55457;52.002;5.464;2024-01-10T08:20:22;3.95;;;1.50;;
55186;SDS011;55457;52.002;5.464;2024-01-10T08:22:47;8.73;;;1.85;;
55186;SDS011;55457;52.002;5.464;2024-01-10T08:25:13;11.38;;;2.35;;
55186;SDS011;55457;52.002;5.464;2024-01-10T08:27:40;4.10;;;1.55;;
55186;SDS011;55457;52.002;5.464;2024-01-10T08:30:06;10.90;;;1.70;;
55186;SDS011;55457;52.002;5.464;2024-01-10T08:32:34;4.90;;;1.80;;
55186;SDS011;55457;52.002;5.464;2024-01-10T08:35:00;6.00;;;1.80;;
55186;SDS011;55457;52.002;5.464;2024-01-10T08:37:25;6.03;;;2.83;;
55186;SDS011;55457;52.002;5.464;2024-01-10T08:39:51;5.90;;;1.45;;
55186;SDS011;55457;52.002;5.464;2024-01-10T08:42:16;4.00;;;1.85;;
55186;SDS011;55457;52.002;5.464;2024-01-10T08:44:41;7.75;;;1.92;;
55186;SDS011;55457;52.002;5.464;2024-01-10T08:47:06;7.57;;;2.05;;
55186;SDS011;55457;52.002;5.464;2024-01-10T08:49:32;3.17;;;1.40;;
55186;SDS011;55457;52.002;5.464;2024-01-10T08:51:58;7.80;;;2.35;;
55186;SDS011;55457;52.002;5.464;2024-01-10T08:54:23;6.60;;;1.67;;
55186;SDS011;55457;52.002;5.464;2024-01-10T08:56:49;8.00;;;2.33;;
55186;SDS011;55457;52.002;5.464;2024-01-10T08:59:14;6.68;;;1.85;;
55186;SDS011;55457;52.002;5.464;2024-01-10T09:01:40;6.78;;;1.73;;
55186;SDS011;55457;52.002;5.464;2024-01-10T09:04:05;6.97;;;2.38;;
55186;SDS011;55457;52.002;5.464;2024-01-10T09:06:31;7.97;;;1.52;;
55186;SDS011;55457;52.002;5.464;2024-01-10T09:08:57;7.18;;;1.70;;
55186;SDS011;55457;52.002;5.464;2024-01-10T09:11:23;5.65;;;1.45;;
55186;SDS011;55457;52.002;5.464;2024-01-10T09:13:49;2.92;;;1.25;;
55186;SDS011;55457;52.002;5.464;2024-01-10T09:16:15;3.78;;;1.60;;
55186;SDS011;55457;52.002;5.464;2024-01-10T09:18:40;2.97;;;1.33;;
55186;SDS011;55457;52.002;5.464;2024-01-10T09:21:06;3.20;;;1.55;;
55186;SDS011;55457;52.002;5.464;2024-01-10T09:23:31;5.80;;;1.85;;
55186;SDS011;55457;52.002;5.464;2024-01-10T09:25:56;8.52;;;1.90;;
55186;SDS011;55457;52.002;5.464;2024-01-10T09:28:22;4.78;;;1.63;;
55186;SDS011;55457;52.002;5.464;2024-01-10T09:30:47;11.60;;;2.10;;
55186;SDS011;55457;52.002;5.464;2024-01-10T09:33:12;6.20;;;1.80;;
55186;SDS011;55457;52.002;5.464;2024-01-10T09:35:38;3.78;;;1.23;;
55186;SDS011;55457;52.002;5.464;2024-01-10T09:38:03;6.43;;;2.60;;
55186;SDS011;55457;52.002;5.464;2024-01-10T09:40:29;5.63;;;1.90;;
55186;SDS011;55457;52.002;5.464;2024-01-10T09:42:54;5.82;;;1.80;;
55186;SDS011;55457;52.002;5.464;2024-01-10T09:45:20;4.50;;;1.50;;
55186;SDS011;55457;52.002;5.464;2024-01-10T09:47:49;4.53;;;1.63;;
55186;SDS011;55457;52.002;5.464;2024-01-10T09:50:18;4.13;;;1.67;;
55186;SDS011;55457;52.002;5.464;2024-01-10T09:52:50;9.80;;;1.60;;
55186;SDS011;55457;52.002;5.464;2024-01-10T09:55:17;8.45;;;1.70;;
55186;SDS011;55457;52.002;5.464;2024-01-10T09:57:46;8.10;;;1.90;;
55186;SDS011;55457;52.002;5.464;2024-01-10T10:00:12;5.35;;;1.73;;
55186;SDS011;55457;52.002;5.464;2024-01-10T10:02:40;4.32;;;1.73;;
55186;SDS011;55457;52.002;5.464;2024-01-10T10:07:44;4.88;;;1.83;;
55186;SDS011;55457;52.002;5.464;2024-01-10T10:10:09;5.78;;;2.40;;
55186;SDS011;55457;52.002;5.464;2024-01-10T10:12:42;4.70;;;1.95;;
55186;SDS011;55457;52.002;5.464;2024-01-10T10:15:17;4.70;;;1.70;;
55186;SDS011;55457;52.002;5.464;2024-01-10T10:17:44;4.35;;;1.67;;
55186;SDS011;55457;52.002;5.464;2024-01-10T10:20:23;4.97;;;2.03;;
55186;SDS011;55457;52.002;5.464;2024-01-10T10:25:28;4.97;;;1.95;;
55186;SDS011;55457;52.002;5.464;2024-01-10T10:28:08;2.47;;;1.55;;
55186;SDS011;55457;52.002;5.464;2024-01-10T10:30:33;3.25;;;1.52;;
55186;SDS011;55457;52.002;5.464;2024-01-10T10:33:01;3.13;;;1.50;;
55186;SDS011;55457;52.002;5.464;2024-01-10T10:35:28;7.05;;;2.13;;
55186;SDS011;55457;52.002;5.464;2024-01-10T10:37:53;3.45;;;1.70;;
55186;SDS011;55457;52.002;5.464;2024-01-10T10:40:22;5.45;;;1.48;;
55186;SDS011;55457;52.002;5.464;2024-01-10T10:42:49;4.03;;;1.58;;
55186;SDS011;55457;52.002;5.464;2024-01-10T10:45:20;6.40;;;1.80;;
55186;SDS011;55457;52.002;5.464;2024-01-10T10:47:50;3.97;;;1.75;;
55186;SDS011;55457;52.002;5.464;2024-01-10T10:50:26;3.65;;;1.48;;
55186;SDS011;55457;52.002;5.464;2024-01-10T10:52:53;2.83;;;1.63;;
55186;SDS011;55457;52.002;5.464;2024-01-10T10:55:20;8.25;;;2.70;;
55186;SDS011;55457;52.002;5.464;2024-01-10T10:57:47;4.78;;;1.70;;
55186;SDS011;55457;52.002;5.464;2024-01-10T11:00:13;5.25;;;2.55;;
55186;SDS011;55457;52.002;5.464;2024-01-10T11:02:43;3.75;;;1.77;;
55186;SDS011;55457;52.002;5.464;2024-01-10T11:05:09;10.10;;;2.03;;
55186;SDS011;55457;52.002;5.464;2024-01-10T11:07:36;5.65;;;2.33;;
55186;SDS011;55457;52.002;5.464;2024-01-10T11:10:06;3.50;;;1.83;;
55186;SDS011;55457;52.002;5.464;2024-01-10T11:21:17;4.70;;;2.08;;
55186;SDS011;55457;52.002;5.464;2024-01-10T11:23:50;4.18;;;2.08;;
55186;SDS011;55457;52.002;5.464;2024-01-10T11:26:19;4.78;;;1.80;;
55186;SDS011;55457;52.002;5.464;2024-01-10T11:28:45;6.55;;;2.38;;
55186;SDS011;55457;52.002;5.464;2024-01-10T11:31:12;3.78;;;1.42;;
55186;SDS011;55457;52.002;5.464;2024-01-10T11:33:40;6.10;;;1.55;;
55186;SDS011;55457;52.002;5.464;2024-01-10T11:46:34;4.72;;;1.73;;
55186;SDS011;55457;52.002;5.464;2024-01-10T11:49:02;3.60;;;1.50;;
55186;SDS011;55457;52.002;5.464;2024-01-10T11:51:28;3.50;;;1.73;;
55186;SDS011;55457;52.002;5.464;2024-01-10T11:53:54;3.38;;;1.88;;
55186;SDS011;55457;52.002;5.464;2024-01-10T11:56:21;4.25;;;2.10;;
55186;SDS011;55457;52.002;5.464;2024-01-10T11:59:03;6.55;;;2.00;;
55186;SDS011;55457;52.002;5.464;2024-01-10T12:01:34;4.63;;;1.98;;
55186;SDS011;55457;52.002;5.464;2024-01-10T12:04:01;4.07;;;1.67;;
55186;SDS011;55457;52.002;5.464;2024-01-10T12:06:28;1.95;;;1.15;;
55186;SDS011;55457;52.002;5.464;2024-01-10T12:08:54;4.57;;;2.05;;
55186;SDS011;55457;52.002;5.464;2024-01-10T12:11:19;6.18;;;1.83;;
55186;SDS011;55457;52.002;5.464;2024-01-10T12:13:45;5.22;;;2.00;;
55186;SDS011;55457;52.002;5.464;2024-01-10T12:16:11;5.88;;;1.58;;
55186;SDS011;55457;52.002;5.464;2024-01-10T12:18:38;3.10;;;1.40;;
55186;SDS011;55457;52.002;5.464;2024-01-10T12:21:03;3.65;;;1.75;;
55186;SDS011;55457;52.002;5.464;2024-01-10T12:23:29;7.10;;;1.65;;
55186;SDS011;55457;52.002;5.464;2024-01-10T12:25:56;6.07;;;3.05;;
55186;SDS011;55457;52.002;5.464;2024-01-10T12:28:34;3.15;;;1.85;;
55186;SDS011;55457;52.002;5.464;2024-01-10T12:31:00;6.18;;;1.98;;
55186;SDS011;55457;52.002;5.464;2024-01-10T12:33:26;7.10;;;2.20;;
55186;SDS011;55457;52.002;5.464;2024-01-10T12:36:07;2.85;;;1.48;;
55186;SDS011;55457;52.002;5.464;2024-01-10T12:41:00;7.07;;;2.13;;
55186;SDS011;55457;52.002;5.464;2024-01-10T12:43:26;4.40;;;1.88;;
55186;SDS011;55457;52.002;5.464;2024-01-10T12:46:04;2.80;;;1.95;;
55186;SDS011;55457;52.002;5.464;2024-01-10T12:48:36;5.68;;;2.53;;
55186;SDS011;55457;52.002;5.464;2024-01-10T12:51:04;3.53;;;2.05;;
55186;SDS011;55457;52.002;5.464;2024-01-10T12:53:37;7.78;;;2.47;;
55186;SDS011;55457;52.002;5.464;2024-01-10T12:56:07;4.40;;;2.58;;
55186;SDS011;55457;52.002;5.464;2024-01-10T12:58:34;3.65;;;2.47;;
55186;SDS011;55457;52.002;5.464;2024-01-10T13:01:01;6.60;;;2.53;;
55186;SDS011;55457;52.002;5.464;2024-01-10T13:03:28;8.52;;;2.72;;
55186;SDS011;55457;52.002;5.464;2024-01-10T13:05:54;8.23;;;2.75;;
55186;SDS011;55457;52.002;5.464;2024-01-10T13:08:19;5.95;;;2.20;;
55186;SDS011;55457;52.002;5.464;2024-01-10T13:10:45;3.95;;;2.33;;
55186;SDS011;55457;52.002;5.464;2024-01-10T13:13:12;3.20;;;1.73;;
55186;SDS011;55457;52.002;5.464;2024-01-10T13:15:38;4.45;;;1.80;;
55186;SDS011;55457;52.002;5.464;2024-01-10T13:18:03;3.97;;;2.20;;
55186;SDS011;55457;52.002;5.464;2024-01-10T13:20:29;6.93;;;2.58;;
55186;SDS011;55457;52.002;5.464;2024-01-10T13:22:54;4.85;;;2.10;;
55186;SDS011;55457;52.002;5.464;2024-01-10T13:25:19;7.03;;;2.25;;
55186;SDS011;55457;52.002;5.464;2024-01-10T13:27:49;8.88;;;2.30;;
55186;SDS011;55457;52.002;5.464;2024-01-10T13:30:16;3.88;;;1.88;;
55186;SDS011;55457;52.002;5.464;2024-01-10T13:32:42;3.38;;;1.90;;
55186;SDS011;55457;52.002;5.464;2024-01-10T13:35:08;4.00;;;2.10;;
55186;SDS011;55457;52.002;5.464;2024-01-10T13:37:33;3.53;;;2.20;;
55186;SDS011;55457;52.002;5.464;2024-01-10T13:39:59;6.03;;;2.17;;
55186;SDS011;55457;52.002;5.464;2024-01-10T13:42:24;9.68;;;3.50;;
55186;SDS011;55457;52.002;5.464;2024-01-10T13:44:50;7.72;;;2.17;;
55186;SDS011;55457;52.002;5.464;2024-01-10T13:47:19;4.47;;;2.20;;
55186;SDS011;55457;52.002;5.464;2024-01-10T13:49:46;4.38;;;2.10;;
55186;SDS011;55457;52.002;5.464;2024-01-10T13:52:12;7.45;;;2.30;;
55186;SDS011;55457;52.002;5.464;2024-01-10T13:54:37;6.20;;;2.90;;
55186;SDS011;55457;52.002;5.464;2024-01-10T13:57:03;4.03;;;2.40;;
55186;SDS011;55457;52.002;5.464;2024-01-10T13:59:28;5.38;;;2.20;;
55186;SDS011;55457;52.002;5.464;2024-01-10T14:01:53;4.22;;;2.25;;
55186;SDS011;55457;52.002;5.464;2024-01-10T14:04:19;8.23;;;3.20;;
55186;SDS011;55457;52.002;5.464;2024-01-10T14:06:45;3.58;;;2.10;;
55186;SDS011;55457;52.002;5.464;2024-01-10T14:09:10;4.03;;;2.42;;
55186;SDS011;55457;52.002;5.464;2024-01-10T14:11:35;6.05;;;2.28;;
55186;SDS011;55457;52.002;5.464;2024-01-10T14:14:00;4.72;;;2.70;;
55186;SDS011;55457;52.002;5.464;2024-01-10T14:16:26;5.93;;;2.13;;
55186;SDS011;55457;52.002;5.464;2024-01-10T14:18:52;4.30;;;1.95;;
55186;SDS011;55457;52.002;5.464;2024-01-10T14:21:20;4.38;;;2.47;;
55186;SDS011;55457;52.002;5.464;2024-01-10T14:23:46;4.80;;;2.10;;
55186;SDS011;55457;52.002;5.464;2024-01-10T14:26:12;3.53;;;2.30;;
55186;SDS011;55457;52.002;5.464;2024-01-10T14:28:38;9.30;;;3.08;;
55186;SDS011;55457;52.002;5.464;2024-01-10T14:31:03;5.55;;;2.33;;
55186;SDS011;55457;52.002;5.464;2024-01-10T14:33:29;10.75;;;3.53;;
55186;SDS011;55457;52.002;5.464;2024-01-10T14:35:54;13.27;;;3.08;;
55186;SDS011;55457;52.002;5.464;2024-01-10T14:38:20;8.00;;;2.95;;
55186;SDS011;55457;52.002;5.464;2024-01-10T14:40:46;14.00;;;3.45;;
55186;SDS011;55457;52.002;5.464;2024-01-10T14:43:12;15.35;;;3.45;;
55186;SDS011;55457;52.002;5.464;2024-01-10T14:45:38;13.55;;;3.22;;
55186;SDS011;55457;52.002;5.464;2024-01-10T14:48:03;12.45;;;3.53;;
55186;SDS011;55457;52.002;5.464;2024-01-10T14:50:29;20.58;;;4.20;;
55186;SDS011;55457;52.002;5.464;2024-01-10T14:52:54;11.80;;;3.17;;
55186;SDS011;55457;52.002;5.464;2024-01-10T14:55:22;20.08;;;3.45;;
55186;SDS011;55457;52.002;5.464;2024-01-10T14:57:48;14.65;;;3.75;;
55186;SDS011;55457;52.002;5.464;2024-01-10T15:00:14;15.50;;;3.83;;
55186;SDS011;55457;52.002;5.464;2024-01-10T15:02:40;15.27;;;3.58;;
55186;SDS011;55457;52.002;5.464;2024-01-10T15:05:05;15.07;;;3.03;;
55186;SDS011;55457;52.002;5.464;2024-01-10T15:07:31;9.50;;;2.55;;